createdAt,value
2019-02-25T00:02:01.742Z,6.20
2019-02-25T00:04:33.663Z,6.17
2019-02-25T00:07:05.925Z,6.16
2019-02-25T00:09:37.857Z,6.11
2019-02-25T00:12:09.780Z,6.07
2019-02-25T00:14:41.707Z,6.06
2019-02-25T00:17:13.637Z,6.04
2019-02-25T00:19:45.589Z,6.03
2019-02-25T00:22:17.516Z,6.02
2019-02-25T00:24:49.455Z,6.01
2019-02-25T00:27:21.365Z,5.98
2019-02-25T00:29:53.304Z,5.97
2019-02-25T00:32:25.238Z,5.96
2019-02-25T00:34:57.157Z,5.94
2019-02-25T00:37:29.108Z,5.93
2019-02-25T00:40:01.031Z,5.92
2019-02-25T00:42:32.956Z,5.91
2019-02-25T00:45:09.329Z,5.89
2019-02-25T00:47:41.287Z,5.85
2019-02-25T00:50:19.831Z,5.83
2019-02-25T00:52:51.818Z,5.77
2019-02-25T00:55:23.745Z,5.75
2019-02-25T00:57:55.682Z,5.74
2019-02-25T01:00:27.770Z,5.73
2019-02-25T01:02:59.699Z,5.74
2019-02-25T01:05:31.731Z,5.73
2019-02-25T01:08:04.417Z,5.74
2019-02-25T01:10:36.369Z,5.74
2019-02-25T01:13:10.312Z,5.75
2019-02-25T01:15:42.524Z,5.76
2019-02-25T01:18:14.451Z,5.75
2019-02-25T01:20:46.377Z,5.74
2019-02-25T01:23:18.784Z,5.74
2019-02-25T01:25:55.119Z,5.69
2019-02-25T01:28:27.069Z,5.68
2019-02-25T01:30:58.987Z,5.66
2019-02-25T01:33:31.009Z,5.65
2019-02-25T01:36:03.130Z,5.64
2019-02-25T01:38:35.220Z,5.62
2019-02-25T01:41:07.425Z,5.59
2019-02-25T01:43:39.379Z,5.56
2019-02-25T01:46:11.474Z,5.53
2019-02-25T01:48:43.990Z,5.52
2019-02-25T01:51:15.979Z,5.50
2019-02-25T01:53:48.098Z,5.48
2019-02-25T01:56:20.033Z,5.46
2019-02-25T01:58:57.798Z,5.45
2019-02-25T02:01:29.727Z,5.43
2019-02-25T02:04:01.671Z,5.43
2019-02-25T02:06:33.601Z,5.41
2019-02-25T02:09:08.530Z,5.39
2019-02-25T02:11:40.458Z,5.38
2019-02-25T02:14:12.391Z,5.37
2019-02-25T02:16:44.746Z,5.35
2019-02-25T02:19:16.676Z,5.34
2019-02-25T02:21:48.702Z,5.35
2019-02-25T02:24:20.657Z,5.40
2019-02-25T02:26:52.589Z,5.43
2019-02-25T02:29:24.521Z,5.48
2019-02-25T02:31:56.439Z,5.53
2019-02-25T02:34:28.374Z,5.58
2019-02-25T02:37:00.298Z,5.61
2019-02-25T02:39:32.258Z,5.62
2019-02-25T02:42:16.145Z,5.65
2019-02-25T02:44:53.546Z,5.67
2019-02-25T02:47:33.774Z,5.68
2019-02-25T02:50:19.305Z,5.70
2019-02-25T02:52:51.560Z,5.73
2019-02-25T02:55:23.588Z,5.75
2019-02-25T02:57:55.517Z,5.77
2019-02-25T03:00:27.439Z,5.80
2019-02-25T03:02:59.354Z,5.83
2019-02-25T03:05:31.287Z,5.86
2019-02-25T03:08:04.932Z,5.87
2019-02-25T03:10:36.937Z,5.89
2019-02-25T03:13:08.869Z,5.90
2019-02-25T03:15:42.499Z,5.91
2019-02-25T03:18:14.459Z,5.93
2019-02-25T03:20:46.380Z,5.94
2019-02-25T03:23:18.312Z,5.94
2019-02-25T03:25:50.235Z,5.96
2019-02-25T03:28:22.179Z,5.96
2019-02-25T03:30:54.105Z,5.97
2019-02-25T03:33:26.464Z,5.98
2019-02-25T03:35:58.390Z,5.98
2019-02-25T03:38:30.600Z,5.97
2019-02-25T03:41:02.534Z,5.97
2019-02-25T03:43:34.455Z,5.97
2019-02-25T03:46:06.394Z,5.96
2019-02-25T03:48:38.313Z,5.96
2019-02-25T03:51:12.051Z,5.93
2019-02-25T03:53:43.951Z,5.92
2019-02-25T03:56:16.182Z,5.91
2019-02-25T03:58:48.174Z,5.90
2019-02-25T04:01:20.104Z,5.91
2019-02-25T04:03:52.037Z,5.90
2019-02-25T04:06:25.632Z,5.91
2019-02-25T04:08:57.621Z,5.89
2019-02-25T04:11:29.545Z,5.87
2019-02-25T04:14:01.474Z,5.86
2019-02-25T04:16:33.756Z,5.81
2019-02-25T04:19:05.684Z,5.82
2019-02-25T04:21:37.627Z,5.80
2019-02-25T04:24:09.561Z,5.78
2019-02-25T04:26:41.501Z,5.77
2019-02-25T04:29:13.436Z,5.76
2019-02-25T04:31:45.355Z,5.76
2019-02-25T04:34:17.429Z,5.76
2019-02-25T04:36:49.359Z,5.75
2019-02-25T04:39:21.284Z,5.75
2019-02-25T04:41:53.213Z,5.74
2019-02-25T04:44:25.138Z,5.73
2019-02-25T04:46:57.335Z,5.72
2019-02-25T04:49:29.348Z,5.72
2019-02-25T04:52:01.265Z,5.71
2019-02-25T04:54:33.216Z,5.71
2019-02-25T04:57:05.309Z,5.70
2019-02-25T04:59:38.800Z,5.69
2019-02-25T05:02:10.735Z,5.69
2019-02-25T05:04:42.688Z,5.69
2019-02-25T05:07:14.881Z,5.67
2019-02-25T05:09:46.864Z,5.65
2019-02-25T05:12:19.187Z,5.64
2019-02-25T05:14:51.371Z,5.63
2019-02-25T05:17:23.317Z,5.62
2019-02-25T05:19:55.701Z,5.61
2019-02-25T05:22:27.655Z,5.59
2019-02-25T05:24:59.586Z,5.58
2019-02-25T05:27:31.573Z,5.57
2019-02-25T05:30:05.951Z,5.56
2019-02-25T05:32:38.136Z,5.54
2019-02-25T05:35:12.653Z,5.54
2019-02-25T05:37:45.280Z,5.56
2019-02-25T05:40:19.053Z,5.54
2019-02-25T05:42:51.033Z,5.54
2019-02-25T05:45:23.031Z,5.51
2019-02-25T05:47:55.328Z,5.49
2019-02-25T05:50:27.315Z,5.47
2019-02-25T05:52:59.256Z,5.48
2019-02-25T05:55:31.558Z,5.47
2019-02-25T05:58:03.511Z,5.49
2019-02-25T06:00:36.507Z,5.49
2019-02-25T06:03:08.819Z,5.48
2019-02-25T06:05:40.743Z,5.47
2019-02-25T06:08:12.865Z,5.47
2019-02-25T06:10:44.788Z,5.47
2019-02-25T06:13:16.743Z,5.48
2019-02-25T06:15:51.298Z,5.48
2019-02-25T06:18:22.982Z,5.50
2019-02-25T06:20:54.906Z,5.51
2019-02-25T06:23:26.908Z,5.53
2019-02-25T06:25:58.854Z,5.55
2019-02-25T06:28:31.157Z,5.57
2019-02-25T06:31:03.116Z,5.61
2019-02-25T06:33:35.074Z,5.64
2019-02-25T06:36:07.010Z,5.64
2019-02-25T06:38:38.949Z,5.68
2019-02-25T06:41:10.931Z,5.74
2019-02-25T06:43:42.938Z,5.77
2019-02-25T06:46:14.938Z,5.80
2019-02-25T06:48:46.867Z,5.85
2019-02-25T06:51:18.794Z,5.87
2019-02-25T06:53:50.735Z,5.89
2019-02-25T06:56:22.660Z,5.91
2019-02-25T06:58:54.607Z,5.95
2019-02-25T07:01:26.534Z,5.97
2019-02-25T07:04:18.336Z,6.01
2019-02-25T07:06:51.902Z,6.02
2019-02-25T07:09:31.253Z,6.05
2019-02-25T07:12:08.079Z,6.07
2019-02-25T07:14:44.649Z,6.11
2019-02-25T07:17:23.901Z,6.12
2019-02-25T07:20:06.407Z,6.14
2019-02-25T07:22:45.744Z,6.16
2019-02-25T07:25:22.269Z,6.18
2019-02-25T07:28:11.847Z,6.20
2019-02-25T07:30:51.371Z,6.22
2019-02-25T07:33:44.942Z,6.24
2019-02-25T07:36:27.411Z,6.27
2019-02-25T07:39:00.989Z,6.29
2019-02-25T07:41:38.221Z,6.33
2019-02-25T07:44:11.891Z,6.37
2019-02-25T07:46:45.777Z,6.39
2019-02-25T07:49:22.973Z,6.41
2019-02-25T07:51:56.558Z,6.44
2019-02-25T07:54:42.342Z,6.46
2019-02-25T07:57:16.301Z,6.50
2019-02-25T07:59:55.799Z,6.54
2019-02-25T08:02:32.706Z,6.30
2019-02-25T08:05:07.214Z,6.62
2019-02-25T08:07:44.143Z,6.66
2019-02-25T08:10:20.406Z,6.71
2019-02-25T08:12:57.149Z,6.76
2019-02-25T08:15:33.378Z,6.80
2019-02-25T08:18:07.017Z,6.86
2019-02-25T08:20:46.771Z,6.91
2019-02-25T08:23:38.701Z,6.95
2019-02-25T08:26:15.214Z,6.95
2019-02-25T08:28:51.434Z,6.96
2019-02-25T08:31:41.208Z,7.00
2019-02-25T08:34:20.840Z,7.02
2019-02-25T08:37:19.532Z,7.07
2019-02-25T08:40:16.208Z,7.12
2019-02-25T08:42:48.329Z,7.18
2019-02-25T08:45:24.692Z,7.23
2019-02-25T08:48:04.400Z,7.28
2019-02-25T08:50:36.343Z,7.34
2019-02-25T08:53:08.275Z,7.40
2019-02-25T08:55:40.595Z,7.46
2019-02-25T08:58:12.539Z,7.52
2019-02-25T09:00:44.905Z,7.60
2019-02-25T09:03:16.871Z,7.68
2019-02-25T09:05:48.800Z,7.75
2019-02-25T09:08:20.729Z,7.81
2019-02-25T09:10:52.850Z,7.80
2019-02-25T09:13:24.777Z,7.77
2019-02-25T09:15:56.712Z,7.77
2019-02-25T09:18:28.973Z,7.80
2019-02-25T09:21:00.964Z,7.81
2019-02-25T09:23:33.025Z,7.83
2019-02-25T09:26:05.024Z,7.86
2019-02-25T09:28:36.971Z,7.89
2019-02-25T09:31:09.509Z,7.94
2019-02-25T09:33:41.732Z,7.99
2019-02-25T09:36:13.665Z,8.03
2019-02-25T09:38:45.614Z,8.10
2019-02-25T09:41:17.869Z,8.15
2019-02-25T09:43:49.800Z,8.24
2019-02-25T09:46:21.719Z,8.31
2019-02-25T09:48:53.695Z,8.38
2019-02-25T09:51:25.651Z,8.45
2019-02-25T09:53:57.576Z,8.51
2019-02-25T09:56:29.503Z,8.57
2019-02-25T09:59:01.439Z,8.61
2019-02-25T10:01:33.399Z,8.67
2019-02-25T10:04:05.339Z,8.75
2019-02-25T10:06:37.335Z,8.82
2019-02-25T10:09:09.267Z,8.90
2019-02-25T10:11:41.217Z,8.96
2019-02-25T10:14:13.144Z,9.02
2019-02-25T10:16:45.112Z,9.11
2019-02-25T10:19:17.021Z,9.18
2019-02-25T10:21:48.955Z,9.26
2019-02-25T10:24:20.893Z,9.33
2019-02-25T10:26:53.219Z,9.38
2019-02-25T10:29:25.174Z,9.43
2019-02-25T10:31:57.099Z,9.50
2019-02-25T10:34:29.060Z,9.56
2019-02-25T10:37:01.116Z,9.63
2019-02-25T10:39:33.048Z,9.71
2019-02-25T10:42:04.980Z,9.78
2019-02-25T10:44:38.253Z,9.85
2019-02-25T10:47:10.955Z,9.90
2019-02-25T10:49:44.171Z,9.97
2019-02-25T10:52:17.271Z,10.01
2019-02-25T10:54:51.516Z,10.07
2019-02-25T10:57:24.538Z,10.12
2019-02-25T10:59:57.487Z,10.16
2019-02-25T11:02:29.655Z,10.21
2019-02-25T11:05:01.597Z,10.23
2019-02-25T11:07:34.924Z,10.27
2019-02-25T11:10:11.993Z,10.29
2019-02-25T11:12:45.091Z,10.30
2019-02-25T11:15:17.099Z,10.32
2019-02-25T11:17:49.746Z,10.35
2019-02-25T11:20:22.705Z,10.40
2019-02-25T11:22:54.637Z,10.47
2019-02-25T11:25:28.493Z,10.52
2019-02-25T11:28:00.567Z,10.57
2019-02-25T11:30:32.582Z,10.64
2019-02-25T11:33:04.669Z,10.70
2019-02-25T11:35:38.791Z,10.73
2019-02-25T11:38:10.248Z,10.73
2019-02-25T11:40:42.492Z,10.76
2019-02-25T11:43:16.628Z,10.80
2019-02-25T11:45:48.667Z,10.82
2019-02-25T11:48:22.557Z,10.86
2019-02-25T11:50:54.239Z,10.91
2019-02-25T11:53:26.500Z,10.94
2019-02-25T11:56:00.866Z,10.99
2019-02-25T11:58:37.126Z,11.06
2019-02-25T12:01:09.207Z,11.11
2019-02-25T12:03:41.481Z,11.16
2019-02-25T12:06:13.668Z,11.22
2019-02-25T12:08:45.762Z,11.26
2019-02-25T12:11:17.768Z,11.29
2019-02-25T12:13:49.728Z,11.32
2019-02-25T12:16:21.803Z,11.34
2019-02-25T12:18:53.825Z,11.36
2019-02-25T12:21:26.199Z,11.41
2019-02-25T12:23:58.148Z,11.43
2019-02-25T12:26:30.230Z,11.46
2019-02-25T12:29:10.575Z,11.48
2019-02-25T12:31:35.788Z,11.49
2019-02-25T12:34:07.728Z,11.48
2019-02-25T12:36:39.666Z,11.49
2019-02-25T12:39:11.597Z,11.50
2019-02-25T12:41:43.580Z,11.53
2019-02-25T12:44:15.518Z,11.30
2019-02-25T12:46:48.377Z,11.58
2019-02-25T12:49:20.347Z,11.60
2019-02-25T12:51:52.285Z,11.61
2019-02-25T12:54:24.220Z,11.66
2019-02-25T12:56:56.158Z,11.73
2019-02-25T12:59:28.127Z,11.78
2019-02-25T13:02:00.084Z,11.83
2019-02-25T13:04:32.119Z,11.87
2019-02-25T13:07:04.336Z,11.91
2019-02-25T13:09:36.306Z,11.94
2019-02-25T13:12:08.533Z,11.97
2019-02-25T13:14:40.647Z,11.99
2019-02-25T13:17:12.584Z,12.01
2019-02-25T13:19:44.647Z,12.05
2019-02-25T13:22:16.599Z,12.06
2019-02-25T13:24:49.007Z,12.08
2019-02-25T13:27:21.075Z,12.10
2019-02-25T13:29:53.923Z,12.10
2019-02-25T13:32:26.218Z,12.13
2019-02-25T13:34:58.163Z,12.16
2019-02-25T13:37:30.871Z,12.17
2019-02-25T13:40:03.025Z,12.16
2019-02-25T13:42:34.948Z,12.15
2019-02-25T13:45:14.614Z,12.15
2019-02-25T13:47:46.650Z,12.13
2019-02-25T13:50:19.742Z,12.13
2019-02-25T13:52:51.683Z,12.15
2019-02-25T13:55:23.876Z,12.17
2019-02-25T13:57:57.638Z,12.16
2019-02-25T14:00:29.849Z,12.14
2019-02-25T14:03:03.346Z,12.11
2019-02-25T14:05:36.874Z,12.05
2019-02-25T14:08:08.891Z,11.98
2019-02-25T14:10:41.122Z,11.92
2019-02-25T14:13:13.189Z,11.82
2019-02-25T14:15:45.448Z,11.75
2019-02-25T14:18:18.104Z,11.66
2019-02-25T14:20:50.095Z,11.57
2019-02-25T14:23:22.441Z,11.50
2019-02-25T14:25:54.585Z,11.47
2019-02-25T14:28:26.629Z,11.44
2019-02-25T14:30:59.304Z,11.44
2019-02-25T14:33:35.635Z,11.41
2019-02-25T14:36:05.040Z,11.10
2019-02-25T14:38:37.299Z,11.34
2019-02-25T14:41:11.714Z,11.33
2019-02-25T14:43:47.043Z,11.31
2019-02-25T14:46:21.439Z,11.30
2019-02-25T14:48:51.111Z,11.29
2019-02-25T14:51:23.053Z,11.23
2019-02-25T14:53:55.048Z,11.17
2019-02-25T14:56:27.133Z,11.11
2019-02-25T14:59:00.622Z,11.10
2019-02-25T15:01:32.839Z,11.11
2019-02-25T15:04:06.479Z,11.11
2019-02-25T15:06:38.700Z,11.13
2019-02-25T15:09:12.506Z,11.15
2019-02-25T15:11:44.801Z,11.17
2019-02-25T15:14:17.082Z,11.18
2019-02-25T15:16:50.100Z,11.17
2019-02-25T15:19:22.925Z,11.18
2019-02-25T15:21:56.445Z,11.18
2019-02-25T15:24:29.165Z,11.17
2019-02-25T15:27:02.391Z,11.16
2019-02-25T15:29:37.042Z,11.16
2019-02-25T15:32:09.152Z,11.14
2019-02-25T15:34:41.169Z,11.13
2019-02-25T15:37:13.971Z,11.10
2019-02-25T15:39:46.553Z,11.09
2019-02-25T15:42:19.138Z,11.08
2019-02-25T15:44:51.785Z,11.06
2019-02-25T15:47:24.813Z,11.05
2019-02-25T15:49:59.769Z,11.04
2019-02-25T15:52:39.679Z,11.02
2019-02-25T15:55:08.809Z,10.98
2019-02-25T15:57:40.764Z,10.98
2019-02-25T16:00:23.235Z,10.95
2019-02-25T16:02:56.993Z,10.92
2019-02-25T16:05:31.979Z,10.90
2019-02-25T16:08:05.358Z,10.87
2019-02-25T16:10:37.379Z,10.85
2019-02-25T16:13:13.978Z,10.82
2019-02-25T16:15:43.433Z,10.81
2019-02-25T16:18:15.448Z,10.78
2019-02-25T16:20:47.514Z,10.74
2019-02-25T16:23:20.143Z,10.71
2019-02-25T16:25:53.204Z,10.69
2019-02-25T16:28:26.170Z,10.66
2019-02-25T16:30:58.133Z,10.64
2019-02-25T16:33:30.795Z,10.59
2019-02-25T16:36:05.626Z,10.55
2019-02-25T16:38:37.497Z,10.53
2019-02-25T16:41:10.262Z,10.51
2019-02-25T16:43:42.416Z,10.48
2019-02-25T16:46:16.221Z,10.45
2019-02-25T16:48:50.617Z,10.42
2019-02-25T16:51:23.575Z,10.33
2019-02-25T16:53:55.814Z,10.36
2019-02-25T16:56:27.821Z,10.32
2019-02-25T16:59:00.231Z,10.30
2019-02-25T17:01:34.406Z,10.28
2019-02-25T17:04:05.950Z,10.26
2019-02-25T17:06:39.470Z,10.24
2019-02-25T17:09:18.228Z,10.22
2019-02-25T17:11:51.241Z,10.22
2019-02-25T17:14:23.983Z,10.25
2019-02-25T17:16:57.420Z,10.22
2019-02-25T17:19:29.824Z,10.19
2019-02-25T17:22:02.437Z,10.16
2019-02-25T17:24:37.061Z,10.13
2019-02-25T17:27:11.818Z,10.10
2019-02-25T17:29:43.756Z,10.08
2019-02-25T17:32:16.678Z,10.05
2019-02-25T17:34:49.340Z,10.03
2019-02-25T17:37:21.297Z,10.00
2019-02-25T17:39:54.434Z,9.98
2019-02-25T17:42:28.580Z,9.96
2019-02-25T17:45:02.534Z,9.96
2019-02-25T17:47:35.181Z,9.94
2019-02-25T17:50:14.998Z,9.94
2019-02-25T17:52:47.081Z,9.93
2019-02-25T17:55:22.194Z,9.92
2019-02-25T17:57:55.953Z,9.91
2019-02-25T18:00:38.830Z,9.89
2019-02-25T18:03:09.885Z,9.87
2019-02-25T18:05:43.205Z,9.87
2019-02-25T18:08:15.562Z,9.85
2019-02-25T18:10:54.049Z,9.84
2019-02-25T18:13:26.394Z,9.82
2019-02-25T18:15:59.699Z,9.79
2019-02-25T18:18:31.629Z,9.77
2019-02-25T18:21:03.922Z,9.76
2019-02-25T18:23:36.332Z,9.74
2019-02-25T18:26:09.205Z,9.73
2019-02-25T18:28:41.726Z,9.72
2019-02-25T18:31:14.792Z,9.71
2019-02-25T18:33:48.448Z,9.69
2019-02-25T18:36:21.918Z,9.66
2019-02-25T18:38:54.847Z,9.65
2019-02-25T18:41:28.118Z,9.62
2019-02-25T18:44:00.796Z,9.60
2019-02-25T18:46:33.079Z,9.57
2019-02-25T18:49:07.274Z,9.55
2019-02-25T18:51:39.516Z,9.54
2019-02-25T18:54:11.596Z,9.49
2019-02-25T18:56:44.634Z,9.49
2019-02-25T18:59:17.948Z,9.49
2019-02-25T19:01:51.972Z,9.48
2019-02-25T19:04:24.125Z,9.46
2019-02-25T19:06:57.655Z,9.44
2019-02-25T19:09:29.787Z,9.42
2019-02-25T19:12:02.058Z,9.41
2019-02-25T19:14:34.419Z,9.40
2019-02-25T19:17:06.931Z,9.41
2019-02-25T19:19:41.215Z,9.39
2019-02-25T19:22:15.815Z,9.38
2019-02-25T19:24:54.617Z,9.38
2019-02-25T19:27:27.781Z,9.38
2019-02-25T19:30:02.807Z,9.39
2019-02-25T19:32:35.921Z,9.39
2019-02-25T19:35:10.882Z,9.39
2019-02-25T19:37:44.508Z,9.37
2019-02-25T19:40:24.434Z,9.37
2019-02-25T19:42:57.642Z,9.36
2019-02-25T19:45:30.368Z,9.35
2019-02-25T19:48:04.666Z,9.33
2019-02-25T19:50:38.554Z,9.31
2019-02-25T19:53:12.518Z,9.28
2019-02-25T19:55:46.181Z,9.28
2019-02-25T19:58:18.044Z,9.27
2019-02-25T20:00:52.915Z,9.26
2019-02-25T20:03:23.614Z,9.25
2019-02-25T20:05:56.394Z,9.23
2019-02-25T20:08:28.484Z,9.20
2019-02-25T20:11:00.722Z,9.19
2019-02-25T20:13:32.661Z,9.17
2019-02-25T20:16:07.812Z,9.17
2019-02-25T20:18:40.322Z,9.16
2019-02-25T20:21:13.232Z,9.13
2019-02-25T20:23:47.050Z,9.12
2019-02-25T20:26:20.046Z,9.11
2019-02-25T20:28:52.441Z,9.12
2019-02-25T20:31:24.399Z,9.10
2019-02-25T20:33:57.365Z,9.09
2019-02-25T20:36:30.635Z,9.09
2019-02-25T20:39:04.347Z,9.08
2019-02-25T20:41:36.597Z,9.05
2019-02-25T20:44:08.863Z,9.04
2019-02-25T20:46:40.789Z,9.03
2019-02-25T20:49:16.124Z,9.02
2019-02-25T20:51:47.947Z,9.02
2019-02-25T20:54:21.103Z,8.99
2019-02-25T20:56:55.369Z,8.99
2019-02-25T20:59:28.245Z,8.99
2019-02-25T21:02:00.949Z,8.99
2019-02-25T21:04:36.504Z,8.99
2019-02-25T21:07:08.317Z,8.99
2019-02-25T21:09:42.161Z,9.00
2019-02-25T21:12:15.678Z,8.99
2019-02-25T21:14:47.740Z,8.99
2019-02-25T21:17:19.748Z,8.99
2019-02-25T21:19:51.874Z,8.99
2019-02-25T21:22:27.000Z,8.99
2019-02-25T21:24:58.485Z,8.97
2019-02-25T21:27:32.511Z,8.97
2019-02-25T21:30:20.354Z,8.97
2019-02-25T21:32:54.125Z,8.96
2019-02-25T21:35:28.241Z,8.95
2019-02-25T21:37:59.627Z,8.96
2019-02-25T21:40:32.534Z,8.96
2019-02-25T21:43:04.551Z,8.96
2019-02-25T21:45:36.530Z,8.96
2019-02-25T21:48:08.496Z,8.97
2019-02-25T21:50:42.601Z,8.98
2019-02-25T21:53:16.589Z,8.98
2019-02-25T21:55:51.121Z,8.99
2019-02-25T21:58:25.229Z,8.99
2019-02-25T22:00:56.985Z,9.00
2019-02-25T22:03:28.938Z,9.01
2019-02-25T22:06:02.620Z,9.03
2019-02-25T22:08:36.066Z,9.04
2019-02-25T22:11:13.043Z,9.03
2019-02-25T22:13:42.196Z,9.04
2019-02-25T22:16:14.218Z,9.04
2019-02-25T22:18:48.315Z,9.04
2019-02-25T22:21:21.184Z,9.05
2019-02-25T22:23:56.156Z,9.05
2019-02-25T22:26:29.116Z,9.06
2019-02-25T22:29:01.950Z,9.06
2019-02-25T22:31:35.376Z,9.05
2019-02-25T22:34:08.861Z,9.05
2019-02-25T22:36:43.771Z,9.06
2019-02-25T22:39:15.064Z,9.06
2019-02-25T22:41:48.767Z,9.06
2019-02-25T22:44:22.607Z,9.06
2019-02-25T22:46:55.168Z,9.07
2019-02-25T22:49:28.822Z,9.07
2019-02-25T22:52:02.804Z,9.07
2019-02-25T22:54:37.054Z,9.10
2019-02-25T22:57:08.098Z,9.10
2019-02-25T22:59:40.066Z,9.11
2019-02-25T23:02:12.430Z,9.11
2019-02-25T23:04:45.177Z,9.13
2019-02-25T23:07:20.050Z,9.11
2019-02-25T23:09:52.310Z,9.11
2019-02-25T23:12:27.211Z,9.12
2019-02-25T23:15:00.947Z,9.11
2019-02-25T23:17:35.189Z,9.12
2019-02-25T23:20:11.189Z,9.11
2019-02-25T23:22:43.200Z,9.10
2019-02-25T23:25:15.159Z,9.07
2019-02-25T23:27:47.102Z,9.07
2019-02-25T23:30:21.357Z,9.07
2019-02-25T23:32:54.554Z,9.06
2019-02-25T23:35:27.015Z,9.07
2019-02-25T23:38:00.854Z,9.07
2019-02-25T23:40:35.366Z,9.07
2019-02-25T23:43:07.493Z,9.06
2019-02-25T23:45:42.128Z,9.04
2019-02-25T23:48:14.290Z,9.03
2019-02-25T23:50:47.956Z,9.03
2019-02-25T23:53:19.887Z,9.01
2019-02-25T23:55:53.849Z,9.00
2019-02-25T23:58:25.896Z,9.01
